sensor_id;sensor_type;location;lat;lon;timestamp;P1;durP1;ratioP1;P2;durP2;ratioP2
83139;SDS011;73027;54.208;19.128;2024-02-16T00:00:43;35.58;;;17.08;;
83139;SDS011;73027;54.208;19.128;2024-02-16T00:03:11;38.08;;;18.88;;
83139;SDS011;73027;54.208;19.128;2024-02-16T00:05:37;36.97;;;18.02;;
83139;SDS011;73027;54.208;19.128;2024-02-16T00:08:02;35.55;;;18.38;;
83139;SDS011;73027;54.208;19.128;2024-02-16T00:10:28;35.28;;;18.17;;
83139;SDS011;73027;54.208;19.128;2024-02-16T00:12:54;33.78;;;18.33;;
83139;SDS011;73027;54.208;19.128;2024-02-16T00:15:19;35.25;;;15.23;;
83139;SDS011;73027;54.208;19.128;2024-02-16T00:17:45;34.25;;;17.65;;
83139;SDS011;73027;54.208;19.128;2024-02-16T00:20:10;30.40;;;15.02;;
83139;SDS011;73027;54.208;19.128;2024-02-16T00:22:37;33.42;;;17.27;;
83139;SDS011;73027;54.208;19.128;2024-02-16T00:25:03;36.13;;;17.80;;
83139;SDS011;73027;54.208;19.128;2024-02-16T00:27:29;36.58;;;17.10;;
83139;SDS011;73027;54.208;19.128;2024-02-16T00:29:54;33.85;;;18.05;;
83139;SDS011;73027;54.208;19.128;2024-02-16T00:32:21;32.80;;;17.33;;
83139;SDS011;73027;54.208;19.128;2024-02-16T00:34:49;29.83;;;14.80;;
83139;SDS011;73027;54.208;19.128;2024-02-16T00:39:42;30.67;;;15.02;;
83139;SDS011;73027;54.208;19.128;2024-02-16T00:42:08;32.03;;;16.10;;
83139;SDS011;73027;54.208;19.128;2024-02-16T00:44:34;33.78;;;15.25;;
83139;SDS011;73027;54.208;19.128;2024-02-16T00:47:00;30.60;;;15.48;;
83139;SDS011;73027;54.208;19.128;2024-02-16T00:49:25;36.95;;;18.73;;
83139;SDS011;73027;54.208;19.128;2024-02-16T00:51:50;44.78;;;18.83;;
83139;SDS011;73027;54.208;19.128;2024-02-16T00:54:16;36.53;;;16.48;;
83139;SDS011;73027;54.208;19.128;2024-02-16T00:56:42;32.15;;;15.90;;
83139;SDS011;73027;54.208;19.128;2024-02-16T00:59:08;38.28;;;17.50;;
83139;SDS011;73027;54.208;19.128;2024-02-16T01:01:35;36.53;;;16.80;;
83139;SDS011;73027;54.208;19.128;2024-02-16T01:04:01;35.90;;;17.67;;
83139;SDS011;73027;54.208;19.128;2024-02-16T01:06:27;36.75;;;17.67;;
83139;SDS011;73027;54.208;19.128;2024-02-16T01:08:53;40.90;;;19.75;;
83139;SDS011;73027;54.208;19.128;2024-02-16T01:11:19;36.95;;;18.23;;
83139;SDS011;73027;54.208;19.128;2024-02-16T01:13:45;36.30;;;17.75;;
83139;SDS011;73027;54.208;19.128;2024-02-16T01:16:11;39.45;;;18.27;;
83139;SDS011;73027;54.208;19.128;2024-02-16T01:18:36;39.10;;;19.38;;
83139;SDS011;73027;54.208;19.128;2024-02-16T01:21:02;36.70;;;17.23;;
83139;SDS011;73027;54.208;19.128;2024-02-16T01:23:28;39.22;;;19.40;;
83139;SDS011;73027;54.208;19.128;2024-02-16T01:25:54;39.30;;;19.45;;
83139;SDS011;73027;54.208;19.128;2024-02-16T01:28:19;40.75;;;19.77;;
83139;SDS011;73027;54.208;19.128;2024-02-16T01:30:45;37.22;;;19.13;;
83139;SDS011;73027;54.208;19.128;2024-02-16T01:33:10;39.85;;;20.02;;
83139;SDS011;73027;54.208;19.128;2024-02-16T01:35:36;38.95;;;19.00;;
83139;SDS011;73027;54.208;19.128;2024-02-16T01:38:01;36.42;;;18.83;;
83139;SDS011;73027;54.208;19.128;2024-02-16T01:40:27;39.47;;;19.17;;
83139;SDS011;73027;54.208;19.128;2024-02-16T01:42:53;39.03;;;17.50;;
83139;SDS011;73027;54.208;19.128;2024-02-16T01:45:19;37.80;;;18.65;;
83139;SDS011;73027;54.208;19.128;2024-02-16T01:47:45;34.35;;;18.08;;
83139;SDS011;73027;54.208;19.128;2024-02-16T01:50:14;36.95;;;17.15;;
83139;SDS011;73027;54.208;19.128;2024-02-16T01:52:40;31.45;;;15.65;;
83139;SDS011;73027;54.208;19.128;2024-02-16T01:55:10;33.72;;;17.10;;
83139;SDS011;73027;54.208;19.128;2024-02-16T01:57:39;29.25;;;15.75;;
83139;SDS011;73027;54.208;19.128;2024-02-16T02:00:07;35.13;;;17.40;;
83139;SDS011;73027;54.208;19.128;2024-02-16T02:02:36;36.90;;;17.23;;
83139;SDS011;73027;54.208;19.128;2024-02-16T02:05:02;32.03;;;15.85;;
83139;SDS011;73027;54.208;19.128;2024-02-16T02:07:28;34.28;;;15.93;;
83139;SDS011;73027;54.208;19.128;2024-02-16T02:09:54;30.55;;;15.13;;
83139;SDS011;73027;54.208;19.128;2024-02-16T02:12:20;28.27;;;14.55;;
83139;SDS011;73027;54.208;19.128;2024-02-16T02:14:46;29.95;;;15.73;;
83139;SDS011;73027;54.208;19.128;2024-02-16T02:17:12;30.33;;;15.95;;
83139;SDS011;73027;54.208;19.128;2024-02-16T02:19:38;30.48;;;15.55;;
83139;SDS011;73027;54.208;19.128;2024-02-16T02:22:04;32.45;;;16.05;;
83139;SDS011;73027;54.208;19.128;2024-02-16T02:24:29;28.67;;;15.35;;
83139;SDS011;73027;54.208;19.128;2024-02-16T02:26:55;30.65;;;14.73;;
83139;SDS011;73027;54.208;19.128;2024-02-16T02:29:22;27.75;;;14.82;;
83139;SDS011;73027;54.208;19.128;2024-02-16T02:31:49;27.40;;;14.18;;
83139;SDS011;73027;54.208;19.128;2024-02-16T02:34:14;27.13;;;12.77;;
83139;SDS011;73027;54.208;19.128;2024-02-16T02:36:40;24.70;;;12.43;;
83139;SDS011;73027;54.208;19.128;2024-02-16T02:39:07;29.90;;;15.25;;
83139;SDS011;73027;54.208;19.128;2024-02-16T02:41:32;29.23;;;15.40;;
83139;SDS011;73027;54.208;19.128;2024-02-16T02:43:57;28.17;;;14.82;;
83139;SDS011;73027;54.208;19.128;2024-02-16T02:46:23;30.02;;;15.25;;
83139;SDS011;73027;54.208;19.128;2024-02-16T02:48:50;29.67;;;15.73;;
83139;SDS011;73027;54.208;19.128;2024-02-16T02:51:16;26.38;;;14.70;;
83139;SDS011;73027;54.208;19.128;2024-02-16T02:53:41;28.05;;;14.20;;
83139;SDS011;73027;54.208;19.128;2024-02-16T02:56:10;29.67;;;15.00;;
83139;SDS011;73027;54.208;19.128;2024-02-16T02:58:35;29.45;;;15.07;;
83139;SDS011;73027;54.208;19.128;2024-02-16T03:01:04;26.95;;;15.13;;
83139;SDS011;73027;54.208;19.128;2024-02-16T03:03:32;28.38;;;15.10;;
83139;SDS011;73027;54.208;19.128;2024-02-16T03:05:58;28.75;;;15.73;;
83139;SDS011;73027;54.208;19.128;2024-02-16T03:08:24;30.05;;;15.25;;
83139;SDS011;73027;54.208;19.128;2024-02-16T03:10:50;29.13;;;15.30;;
83139;SDS011;73027;54.208;19.128;2024-02-16T03:13:15;28.48;;;15.13;;
83139;SDS011;73027;54.208;19.128;2024-02-16T03:15:43;33.95;;;16.77;;
83139;SDS011;73027;54.208;19.128;2024-02-16T03:18:09;26.20;;;14.23;;
83139;SDS011;73027;54.208;19.128;2024-02-16T03:20:34;26.73;;;14.63;;
83139;SDS011;73027;54.208;19.128;2024-02-16T03:23:00;28.77;;;15.40;;
83139;SDS011;73027;54.208;19.128;2024-02-16T03:25:26;28.25;;;15.48;;
83139;SDS011;73027;54.208;19.128;2024-02-16T03:27:52;27.63;;;15.75;;
83139;SDS011;73027;54.208;19.128;2024-02-16T03:30:20;28.48;;;13.55;;
83139;SDS011;73027;54.208;19.128;2024-02-16T03:32:49;30.55;;;15.68;;
83139;SDS011;73027;54.208;19.128;2024-02-16T03:35:15;27.17;;;14.20;;
83139;SDS011;73027;54.208;19.128;2024-02-16T03:37:41;27.92;;;15.23;;
83139;SDS011;73027;54.208;19.128;2024-02-16T03:40:07;28.83;;;14.57;;
83139;SDS011;73027;54.208;19.128;2024-02-16T03:42:34;29.35;;;14.93;;
83139;SDS011;73027;54.208;19.128;2024-02-16T03:45:00;26.00;;;14.52;;
83139;SDS011;73027;54.208;19.128;2024-02-16T03:47:26;29.85;;;15.45;;
83139;SDS011;73027;54.208;19.128;2024-02-16T03:49:51;30.42;;;15.60;;
83139;SDS011;73027;54.208;19.128;2024-02-16T03:52:17;26.75;;;14.38;;
83139;SDS011;73027;54.208;19.128;2024-02-16T03:54:42;28.60;;;14.85;;
83139;SDS011;73027;54.208;19.128;2024-02-16T03:57:09;29.02;;;14.70;;
83139;SDS011;73027;54.208;19.128;2024-02-16T03:59:36;27.92;;;15.52;;
83139;SDS011;73027;54.208;19.128;2024-02-16T04:02:02;28.58;;;14.10;;
83139;SDS011;73027;54.208;19.128;2024-02-16T04:04:27;27.15;;;15.68;;
83139;SDS011;73027;54.208;19.128;2024-02-16T04:06:53;27.77;;;14.65;;
83139;SDS011;73027;54.208;19.128;2024-02-16T04:09:19;28.50;;;15.05;;
83139;SDS011;73027;54.208;19.128;2024-02-16T04:11:47;29.58;;;15.95;;
83139;SDS011;73027;54.208;19.128;2024-02-16T04:14:12;28.42;;;15.57;;
83139;SDS011;73027;54.208;19.128;2024-02-16T04:16:38;29.08;;;15.43;;
83139;SDS011;73027;54.208;19.128;2024-02-16T04:19:03;26.73;;;13.55;;
83139;SDS011;73027;54.208;19.128;2024-02-16T04:21:29;32.70;;;16.52;;
83139;SDS011;73027;54.208;19.128;2024-02-16T04:23:54;30.80;;;15.95;;
83139;SDS011;73027;54.208;19.128;2024-02-16T04:26:20;30.52;;;16.42;;
83139;SDS011;73027;54.208;19.128;2024-02-16T04:28:45;27.60;;;13.70;;
83139;SDS011;73027;54.208;19.128;2024-02-16T04:31:11;28.73;;;15.50;;
83139;SDS011;73027;54.208;19.128;2024-02-16T04:33:36;29.25;;;15.02;;
83139;SDS011;73027;54.208;19.128;2024-02-16T04:36:04;28.63;;;15.52;;
83139;SDS011;73027;54.208;19.128;2024-02-16T04:38:32;32.20;;;15.75;;
83139;SDS011;73027;54.208;19.128;2024-02-16T04:40:58;29.60;;;15.13;;
83139;SDS011;73027;54.208;19.128;2024-02-16T04:43:23;29.65;;;15.20;;
83139;SDS011;73027;54.208;19.128;2024-02-16T04:45:49;30.67;;;15.30;;
83139;SDS011;73027;54.208;19.128;2024-02-16T04:48:14;26.55;;;14.63;;
83139;SDS011;73027;54.208;19.128;2024-02-16T04:50:40;31.05;;;15.23;;
83139;SDS011;73027;54.208;19.128;2024-02-16T04:53:05;25.42;;;13.98;;
83139;SDS011;73027;54.208;19.128;2024-02-16T04:55:30;27.42;;;14.27;;
83139;SDS011;73027;54.208;19.128;2024-02-16T04:57:56;28.05;;;14.32;;
83139;SDS011;73027;54.208;19.128;2024-02-16T05:00:22;27.95;;;14.75;;
83139;SDS011;73027;54.208;19.128;2024-02-16T05:02:47;26.48;;;14.00;;
83139;SDS011;73027;54.208;19.128;2024-02-16T05:05:13;27.30;;;14.00;;
83139;SDS011;73027;54.208;19.128;2024-02-16T05:07:40;27.55;;;15.20;;
83139;SDS011;73027;54.208;19.128;2024-02-16T05:10:10;25.52;;;14.07;;
83139;SDS011;73027;54.208;19.128;2024-02-16T05:12:36;25.10;;;13.38;;
83139;SDS011;73027;54.208;19.128;2024-02-16T05:15:02;28.98;;;15.60;;
83139;SDS011;73027;54.208;19.128;2024-02-16T05:17:28;25.90;;;12.48;;
83139;SDS011;73027;54.208;19.128;2024-02-16T05:19:54;26.80;;;13.98;;
83139;SDS011;73027;54.208;19.128;2024-02-16T05:22:19;23.67;;;13.65;;
83139;SDS011;73027;54.208;19.128;2024-02-16T05:24:47;26.88;;;13.77;;
83139;SDS011;73027;54.208;19.128;2024-02-16T05:27:13;23.02;;;12.18;;
83139;SDS011;73027;54.208;19.128;2024-02-16T05:29:40;30.95;;;17.33;;
83139;SDS011;73027;54.208;19.128;2024-02-16T05:32:05;27.73;;;14.07;;
83139;SDS011;73027;54.208;19.128;2024-02-16T05:34:31;29.13;;;16.05;;
83139;SDS011;73027;54.208;19.128;2024-02-16T05:37:05;28.25;;;14.50;;
83139;SDS011;73027;54.208;19.128;2024-02-16T05:39:32;27.90;;;14.73;;
83139;SDS011;73027;54.208;19.128;2024-02-16T05:42:00;27.60;;;14.15;;
83139;SDS011;73027;54.208;19.128;2024-02-16T05:44:26;28.77;;;13.25;;
83139;SDS011;73027;54.208;19.128;2024-02-16T05:46:52;26.25;;;13.93;;
83139;SDS011;73027;54.208;19.128;2024-02-16T05:49:17;25.08;;;14.32;;
83139;SDS011;73027;54.208;19.128;2024-02-16T05:51:42;25.33;;;13.90;;
83139;SDS011;73027;54.208;19.128;2024-02-16T05:54:26;29.27;;;14.52;;
83139;SDS011;73027;54.208;19.128;2024-02-16T05:56:52;30.33;;;14.52;;
83139;SDS011;73027;54.208;19.128;2024-02-16T05:59:17;28.10;;;14.43;;
83139;SDS011;73027;54.208;19.128;2024-02-16T06:01:43;25.52;;;12.88;;
83139;SDS011;73027;54.208;19.128;2024-02-16T06:04:08;30.48;;;15.15;;
83139;SDS011;73027;54.208;19.128;2024-02-16T06:06:35;33.03;;;14.77;;
83139;SDS011;73027;54.208;19.128;2024-02-16T06:09:01;29.30;;;15.68;;
83139;SDS011;73027;54.208;19.128;2024-02-16T06:11:26;29.40;;;14.20;;
83139;SDS011;73027;54.208;19.128;2024-02-16T06:13:51;31.02;;;16.73;;
83139;SDS011;73027;54.208;19.128;2024-02-16T06:16:17;31.35;;;17.42;;
83139;SDS011;73027;54.208;19.128;2024-02-16T06:18:42;31.58;;;16.23;;
83139;SDS011;73027;54.208;19.128;2024-02-16T06:21:08;26.42;;;14.45;;
83139;SDS011;73027;54.208;19.128;2024-02-16T06:23:33;28.17;;;16.27;;
83139;SDS011;73027;54.208;19.128;2024-02-16T06:25:59;27.17;;;14.73;;
83139;SDS011;73027;54.208;19.128;2024-02-16T06:28:24;29.90;;;15.18;;
83139;SDS011;73027;54.208;19.128;2024-02-16T06:30:49;28.58;;;14.95;;
83139;SDS011;73027;54.208;19.128;2024-02-16T06:33:15;27.92;;;15.10;;
83139;SDS011;73027;54.208;19.128;2024-02-16T06:35:40;26.38;;;14.82;;
83139;SDS011;73027;54.208;19.128;2024-02-16T06:38:06;29.65;;;15.80;;
83139;SDS011;73027;54.208;19.128;2024-02-16T06:40:31;28.42;;;15.23;;
83139;SDS011;73027;54.208;19.128;2024-02-16T06:42:57;28.77;;;15.10;;
83139;SDS011;73027;54.208;19.128;2024-02-16T06:45:22;30.73;;;15.35;;
83139;SDS011;73027;54.208;19.128;2024-02-16T06:47:48;27.02;;;14.73;;
83139;SDS011;73027;54.208;19.128;2024-02-16T06:50:13;28.15;;;14.75;;
83139;SDS011;73027;54.208;19.128;2024-02-16T06:52:39;31.60;;;17.40;;
83139;SDS011;73027;54.208;19.128;2024-02-16T06:55:04;35.78;;;17.33;;
83139;SDS011;73027;54.208;19.128;2024-02-16T06:57:29;25.60;;;13.20;;
83139;SDS011;73027;54.208;19.128;2024-02-16T06:59:56;30.20;;;16.15;;
83139;SDS011;73027;54.208;19.128;2024-02-16T07:02:22;28.02;;;14.40;;
83139;SDS011;73027;54.208;19.128;2024-02-16T07:04:48;31.23;;;15.00;;
83139;SDS011;73027;54.208;19.128;2024-02-16T07:07:13;31.33;;;15.75;;
83139;SDS011;73027;54.208;19.128;2024-02-16T07:09:39;31.92;;;16.50;;
83139;SDS011;73027;54.208;19.128;2024-02-16T07:12:04;32.05;;;17.08;;
83139;SDS011;73027;54.208;19.128;2024-02-16T07:14:31;28.85;;;16.33;;
83139;SDS011;73027;54.208;19.128;2024-02-16T07:16:57;28.73;;;15.93;;
83139;SDS011;73027;54.208;19.128;2024-02-16T07:19:22;30.15;;;16.50;;
83139;SDS011;73027;54.208;19.128;2024-02-16T07:21:48;31.27;;;17.05;;
83139;SDS011;73027;54.208;19.128;2024-02-16T07:24:17;28.55;;;15.43;;
83139;SDS011;73027;54.208;19.128;2024-02-16T07:26:43;27.58;;;14.60;;
83139;SDS011;73027;54.208;19.128;2024-02-16T07:29:08;25.70;;;13.90;;
83139;SDS011;73027;54.208;19.128;2024-02-16T07:31:34;27.20;;;13.40;;
83139;SDS011;73027;54.208;19.128;2024-02-16T07:36:27;25.17;;;12.10;;
83139;SDS011;73027;54.208;19.128;2024-02-16T07:38:52;20.70;;;11.10;;
83139;SDS011;73027;54.208;19.128;2024-02-16T07:41:18;30.80;;;16.00;;
83139;SDS011;73027;54.208;19.128;2024-02-16T07:43:43;28.33;;;13.13;;
83139;SDS011;73027;54.208;19.128;2024-02-16T07:46:09;23.88;;;12.43;;
83139;SDS011;73027;54.208;19.128;2024-02-16T07:48:34;30.05;;;15.10;;
83139;SDS011;73027;54.208;19.128;2024-02-16T07:51:00;28.88;;;14.88;;
83139;SDS011;73027;54.208;19.128;2024-02-16T07:53:27;22.05;;;12.45;;
83139;SDS011;73027;54.208;19.128;2024-02-16T07:55:53;30.27;;;13.60;;
83139;SDS011;73027;54.208;19.128;2024-02-16T07:58:19;30.42;;;14.45;;
83139;SDS011;73027;54.208;19.128;2024-02-16T08:00:44;30.33;;;14.48;;
83139;SDS011;73027;54.208;19.128;2024-02-16T08:03:09;35.30;;;13.20;;
83139;SDS011;73027;54.208;19.128;2024-02-16T08:05:35;29.67;;;15.55;;
83139;SDS011;73027;54.208;19.128;2024-02-16T08:08:00;28.73;;;16.52;;
83139;SDS011;73027;54.208;19.128;2024-02-16T08:10:26;28.50;;;14.13;;
83139;SDS011;73027;54.208;19.128;2024-02-16T08:12:51;22.73;;;11.88;;
83139;SDS011;73027;54.208;19.128;2024-02-16T08:15:17;23.95;;;12.13;;
83139;SDS011;73027;54.208;19.128;2024-02-16T08:17:48;27.80;;;15.88;;
83139;SDS011;73027;54.208;19.128;2024-02-16T08:20:14;25.98;;;14.38;;
83139;SDS011;73027;54.208;19.128;2024-02-16T08:22:40;26.23;;;14.23;;
83139;SDS011;73027;54.208;19.128;2024-02-16T08:25:06;28.88;;;15.18;;
83139;SDS011;73027;54.208;19.128;2024-02-16T08:27:32;24.63;;;13.90;;
83139;SDS011;73027;54.208;19.128;2024-02-16T08:29:57;27.13;;;13.23;;
83139;SDS011;73027;54.208;19.128;2024-02-16T08:32:23;26.75;;;13.93;;
83139;SDS011;73027;54.208;19.128;2024-02-16T08:34:48;24.27;;;12.13;;
83139;SDS011;73027;54.208;19.128;2024-02-16T08:37:15;24.70;;;13.63;;
83139;SDS011;73027;54.208;19.128;2024-02-16T08:39:40;24.85;;;12.93;;
83139;SDS011;73027;54.208;19.128;2024-02-16T08:42:06;25.38;;;13.95;;
83139;SDS011;73027;54.208;19.128;2024-02-16T08:46:59;52.45;;;37.92;;
83139;SDS011;73027;54.208;19.128;2024-02-16T08:49:24;30.58;;;17.63;;
83139;SDS011;73027;54.208;19.128;2024-02-16T08:51:50;34.75;;;21.23;;
83139;SDS011;73027;54.208;19.128;2024-02-16T08:54:15;52.55;;;31.92;;
83139;SDS011;73027;54.208;19.128;2024-02-16T08:56:47;46.38;;;28.15;;
83139;SDS011;73027;54.208;19.128;2024-02-16T08:59:14;28.83;;;14.40;;
83139;SDS011;73027;54.208;19.128;2024-02-16T09:01:42;28.50;;;15.30;;
83139;SDS011;73027;54.208;19.128;2024-02-16T09:04:07;26.40;;;14.63;;
83139;SDS011;73027;54.208;19.128;2024-02-16T09:06:33;20.95;;;11.05;;
83139;SDS011;73027;54.208;19.128;2024-02-16T09:09:01;21.85;;;11.57;;
83139;SDS011;73027;54.208;19.128;2024-02-16T09:11:29;23.73;;;13.05;;
83139;SDS011;73027;54.208;19.128;2024-02-16T09:18:45;22.85;;;12.38;;
83139;SDS011;73027;54.208;19.128;2024-02-16T09:21:13;26.02;;;14.10;;
83139;SDS011;73027;54.208;19.128;2024-02-16T09:23:39;21.52;;;12.00;;
83139;SDS011;73027;54.208;19.128;2024-02-16T09:26:06;20.00;;;10.75;;
83139;SDS011;73027;54.208;19.128;2024-02-16T09:28:38;23.00;;;12.43;;
83139;SDS011;73027;54.208;19.128;2024-02-16T09:31:05;21.05;;;12.15;;
83139;SDS011;73027;54.208;19.128;2024-02-16T09:33:31;19.75;;;10.65;;
83139;SDS011;73027;54.208;19.128;2024-02-16T09:35:56;29.65;;;20.50;;
83139;SDS011;73027;54.208;19.128;2024-02-16T09:38:22;39.13;;;27.20;;
83139;SDS011;73027;54.208;19.128;2024-02-16T09:40:48;21.55;;;13.23;;
83139;SDS011;73027;54.208;19.128;2024-02-16T09:43:24;20.63;;;11.80;;
83139;SDS011;73027;54.208;19.128;2024-02-16T09:45:58;18.95;;;10.98;;
83139;SDS011;73027;54.208;19.128;2024-02-16T09:48:28;21.80;;;13.48;;
83139;SDS011;73027;54.208;19.128;2024-02-16T09:50:54;25.00;;;14.25;;
83139;SDS011;73027;54.208;19.128;2024-02-16T09:53:24;20.48;;;11.85;;
83139;SDS011;73027;54.208;19.128;2024-02-16T09:55:51;20.92;;;12.50;;
83139;SDS011;73027;54.208;19.128;2024-02-16T09:58:17;18.92;;;10.52;;
83139;SDS011;73027;54.208;19.128;2024-02-16T10:00:50;24.33;;;13.50;;
83139;SDS011;73027;54.208;19.128;2024-02-16T10:03:26;20.15;;;10.38;;
83139;SDS011;73027;54.208;19.128;2024-02-16T10:06:11;20.90;;;10.73;;
83139;SDS011;73027;54.208;19.128;2024-02-16T10:08:50;21.55;;;12.00;;
83139;SDS011;73027;54.208;19.128;2024-02-16T10:11:20;20.92;;;12.35;;
83139;SDS011;73027;54.208;19.128;2024-02-16T10:14:03;20.55;;;11.30;;
83139;SDS011;73027;54.208;19.128;2024-02-16T10:16:29;20.77;;;11.90;;
83139;SDS011;73027;54.208;19.128;2024-02-16T10:18:56;18.98;;;9.93;;
83139;SDS011;73027;54.208;19.128;2024-02-16T10:21:29;18.33;;;9.82;;
83139;SDS011;73027;54.208;19.128;2024-02-16T10:24:20;21.60;;;11.73;;
83139;SDS011;73027;54.208;19.128;2024-02-16T10:26:46;28.35;;;16.35;;
83139;SDS011;73027;54.208;19.128;2024-02-16T10:29:11;20.98;;;12.30;;
83139;SDS011;73027;54.208;19.128;2024-02-16T10:31:38;22.63;;;12.93;;
83139;SDS011;73027;54.208;19.128;2024-02-16T10:34:04;25.35;;;16.25;;
83139;SDS011;73027;54.208;19.128;2024-02-16T10:36:31;18.00;;;10.57;;
83139;SDS011;73027;54.208;19.128;2024-02-16T10:38:57;21.98;;;12.63;;
83139;SDS011;73027;54.208;19.128;2024-02-16T10:41:26;19.65;;;12.35;;
83139;SDS011;73027;54.208;19.128;2024-02-16T10:43:55;19.25;;;10.50;;
83139;SDS011;73027;54.208;19.128;2024-02-16T10:46:21;22.50;;;12.45;;
83139;SDS011;73027;54.208;19.128;2024-02-16T10:48:47;23.23;;;12.27;;
83139;SDS011;73027;54.208;19.128;2024-02-16T10:51:13;22.23;;;12.18;;
83139;SDS011;73027;54.208;19.128;2024-02-16T10:53:41;22.25;;;12.38;;
83139;SDS011;73027;54.208;19.128;2024-02-16T10:56:07;21.75;;;11.73;;
83139;SDS011;73027;54.208;19.128;2024-02-16T10:58:33;17.95;;;9.27;;
83139;SDS011;73027;54.208;19.128;2024-02-16T11:01:07;19.73;;;10.77;;
83139;SDS011;73027;54.208;19.128;2024-02-16T11:03:37;29.33;;;18.98;;
83139;SDS011;73027;54.208;19.128;2024-02-16T11:06:25;27.05;;;16.05;;
83139;SDS011;73027;54.208;19.128;2024-02-16T11:08:50;26.00;;;17.73;;
83139;SDS011;73027;54.208;19.128;2024-02-16T11:11:22;27.45;;;12.55;;
83139;SDS011;73027;54.208;19.128;2024-02-16T11:13:49;27.27;;;14.32;;
83139;SDS011;73027;54.208;19.128;2024-02-16T11:16:14;20.38;;;10.65;;
83139;SDS011;73027;54.208;19.128;2024-02-16T11:18:42;17.48;;;10.40;;
83139;SDS011;73027;54.208;19.128;2024-02-16T11:21:12;21.13;;;11.95;;
83139;SDS011;73027;54.208;19.128;2024-02-16T11:23:39;21.83;;;12.00;;
83139;SDS011;73027;54.208;19.128;2024-02-16T11:26:08;22.50;;;11.52;;
83139;SDS011;73027;54.208;19.128;2024-02-16T11:28:40;21.90;;;11.57;;
83139;SDS011;73027;54.208;19.128;2024-02-16T11:31:06;17.10;;;9.68;;
83139;SDS011;73027;54.208;19.128;2024-02-16T11:33:34;21.42;;;11.20;;
83139;SDS011;73027;54.208;19.128;2024-02-16T11:36:04;22.20;;;11.63;;
83139;SDS011;73027;54.208;19.128;2024-02-16T11:38:31;22.83;;;11.30;;
83139;SDS011;73027;54.208;19.128;2024-02-16T11:41:02;22.95;;;12.63;;
83139;SDS011;73027;54.208;19.128;2024-02-16T11:43:29;16.17;;;9.20;;
83139;SDS011;73027;54.208;19.128;2024-02-16T11:45:58;23.65;;;11.90;;
83139;SDS011;73027;54.208;19.128;2024-02-16T11:48:24;15.13;;;8.85;;
83139;SDS011;73027;54.208;19.128;2024-02-16T11:51:01;16.67;;;10.43;;
83139;SDS011;73027;54.208;19.128;2024-02-16T11:53:28;20.52;;;11.35;;
83139;SDS011;73027;54.208;19.128;2024-02-16T11:55:57;17.00;;;9.55;;
83139;SDS011;73027;54.208;19.128;2024-02-16T11:58:24;13.73;;;7.88;;
83139;SDS011;73027;54.208;19.128;2024-02-16T12:00:50;16.30;;;8.60;;
83139;SDS011;73027;54.208;19.128;2024-02-16T12:03:23;19.10;;;9.20;;
83139;SDS011;73027;54.208;19.128;2024-02-16T12:05:53;19.63;;;8.85;;
83139;SDS011;73027;54.208;19.128;2024-02-16T12:08:20;16.98;;;7.63;;
83139;SDS011;73027;54.208;19.128;2024-02-16T12:10:47;14.73;;;8.95;;
83139;SDS011;73027;54.208;19.128;2024-02-16T12:13:18;13.98;;;7.55;;
83139;SDS011;73027;54.208;19.128;2024-02-16T12:15:53;15.27;;;7.97;;
83139;SDS011;73027;54.208;19.128;2024-02-16T12:18:27;20.20;;;9.65;;
83139;SDS011;73027;54.208;19.128;2024-02-16T12:20:57;12.75;;;7.78;;
83139;SDS011;73027;54.208;19.128;2024-02-16T12:23:26;16.90;;;7.85;;
83139;SDS011;73027;54.208;19.128;2024-02-16T12:25:52;12.93;;;6.53;;
83139;SDS011;73027;54.208;19.128;2024-02-16T12:28:18;14.10;;;7.72;;
83139;SDS011;73027;54.208;19.128;2024-02-16T12:30:45;16.45;;;8.18;;
83139;SDS011;73027;54.208;19.128;2024-02-16T12:33:13;15.23;;;7.63;;
83139;SDS011;73027;54.208;19.128;2024-02-16T12:35:39;18.42;;;9.65;;
83139;SDS011;73027;54.208;19.128;2024-02-16T12:38:04;14.00;;;7.93;;
83139;SDS011;73027;54.208;19.128;2024-02-16T12:40:29;15.18;;;8.00;;
83139;SDS011;73027;54.208;19.128;2024-02-16T12:42:55;13.63;;;8.15;;
83139;SDS011;73027;54.208;19.128;2024-02-16T12:45:21;19.65;;;8.73;;
83139;SDS011;73027;54.208;19.128;2024-02-16T12:47:47;19.20;;;10.00;;
83139;SDS011;73027;54.208;19.128;2024-02-16T12:50:12;17.33;;;8.55;;
83139;SDS011;73027;54.208;19.128;2024-02-16T12:52:38;15.43;;;9.30;;
83139;SDS011;73027;54.208;19.128;2024-02-16T12:55:05;16.95;;;9.07;;
83139;SDS011;73027;54.208;19.128;2024-02-16T12:57:31;17.40;;;10.70;;
83139;SDS011;73027;54.208;19.128;2024-02-16T12:59:56;13.93;;;8.45;;
83139;SDS011;73027;54.208;19.128;2024-02-16T13:02:22;17.90;;;8.50;;
83139;SDS011;73027;54.208;19.128;2024-02-16T13:04:47;13.23;;;6.88;;
83139;SDS011;73027;54.208;19.128;2024-02-16T13:07:13;15.98;;;8.48;;
83139;SDS011;73027;54.208;19.128;2024-02-16T13:09:38;22.08;;;9.13;;
83139;SDS011;73027;54.208;19.128;2024-02-16T13:12:04;15.60;;;8.52;;
83139;SDS011;73027;54.208;19.128;2024-02-16T13:14:30;15.80;;;8.25;;
83139;SDS011;73027;54.208;19.128;2024-02-16T13:16:55;13.18;;;7.82;;
83139;SDS011;73027;54.208;19.128;2024-02-16T13:19:21;13.52;;;7.90;;
83139;SDS011;73027;54.208;19.128;2024-02-16T13:21:46;14.02;;;7.50;;
83139;SDS011;73027;54.208;19.128;2024-02-16T13:24:11;16.83;;;9.32;;
83139;SDS011;73027;54.208;19.128;2024-02-16T13:26:37;13.10;;;6.40;;
83139;SDS011;73027;54.208;19.128;2024-02-16T13:29:02;13.52;;;8.27;;
83139;SDS011;73027;54.208;19.128;2024-02-16T13:31:28;12.60;;;7.15;;
83139;SDS011;73027;54.208;19.128;2024-02-16T13:33:54;11.88;;;7.15;;
83139;SDS011;73027;54.208;19.128;2024-02-16T13:36:20;14.32;;;8.65;;
83139;SDS011;73027;54.208;19.128;2024-02-16T13:38:45;13.38;;;8.13;;
83139;SDS011;73027;54.208;19.128;2024-02-16T13:41:11;14.52;;;9.23;;
83139;SDS011;73027;54.208;19.128;2024-02-16T13:43:36;13.55;;;7.55;;
83139;SDS011;73027;54.208;19.128;2024-02-16T13:46:02;15.27;;;8.88;;
83139;SDS011;73027;54.208;19.128;2024-02-16T13:48:28;16.95;;;8.93;;
83139;SDS011;73027;54.208;19.128;2024-02-16T13:50:55;16.65;;;8.93;;
83139;SDS011;73027;54.208;19.128;2024-02-16T13:53:20;14.48;;;8.32;;
83139;SDS011;73027;54.208;19.128;2024-02-16T13:55:48;16.52;;;9.93;;
83139;SDS011;73027;54.208;19.128;2024-02-16T13:58:14;12.45;;;7.53;;
83139;SDS011;73027;54.208;19.128;2024-02-16T14:00:41;13.43;;;7.28;;
83139;SDS011;73027;54.208;19.128;2024-02-16T14:03:11;15.30;;;8.45;;
83139;SDS011;73027;54.208;19.128;2024-02-16T14:05:39;12.90;;;6.55;;
83139;SDS011;73027;54.208;19.128;2024-02-16T14:08:05;14.77;;;8.55;;
83139;SDS011;73027;54.208;19.128;2024-02-16T14:10:32;17.48;;;9.15;;
83139;SDS011;73027;54.208;19.128;2024-02-16T14:12:58;17.52;;;8.73;;
83139;SDS011;73027;54.208;19.128;2024-02-16T14:15:23;20.45;;;9.57;;
83139;SDS011;73027;54.208;19.128;2024-02-16T14:17:49;14.38;;;6.75;;
83139;SDS011;73027;54.208;19.128;2024-02-16T14:20:14;14.05;;;7.47;;